sensor_id;sensor_type;location;lat;lon;timestamp;P1;durP1;ratioP1;P2;durP2;ratioP2
41217;SDS011;26950;50.960;7.138;2024-03-08T00:02:16;26.60;;;14.50;;
41217;SDS011;26950;50.960;7.138;2024-03-08T00:04:44;24.53;;;14.07;;
41217;SDS011;26950;50.960;7.138;2024-03-08T00:07:11;27.97;;;14.73;;
41217;SDS011;26950;50.960;7.138;2024-03-08T00:09:38;25.60;;;14.43;;
41217;SDS011;26950;50.960;7.138;2024-03-08T00:12:06;26.30;;;14.97;;
41217;SDS011;26950;50.960;7.138;2024-03-08T00:14:35;27.97;;;14.67;;
41217;SDS011;26950;50.960;7.138;2024-03-08T00:17:02;24.50;;;13.87;;
41217;SDS011;26950;50.960;7.138;2024-03-08T00:19:29;27.97;;;14.63;;
41217;SDS011;26950;50.960;7.138;2024-03-08T00:21:55;26.17;;;14.40;;
41217;SDS011;26950;50.960;7.138;2024-03-08T00:24:22;26.27;;;14.40;;
41217;SDS011;26950;50.960;7.138;2024-03-08T00:26:50;25.33;;;13.97;;
41217;SDS011;26950;50.960;7.138;2024-03-08T00:29:18;27.90;;;14.53;;
41217;SDS011;26950;50.960;7.138;2024-03-08T00:31:44;29.53;;;15.73;;
41217;SDS011;26950;50.960;7.138;2024-03-08T00:34:11;27.97;;;14.73;;
41217;SDS011;26950;50.960;7.138;2024-03-08T00:36:37;27.27;;;14.70;;
41217;SDS011;26950;50.960;7.138;2024-03-08T00:39:04;25.00;;;14.93;;
41217;SDS011;26950;50.960;7.138;2024-03-08T00:41:31;26.63;;;15.10;;
41217;SDS011;26950;50.960;7.138;2024-03-08T00:43:58;29.50;;;14.37;;
41217;SDS011;26950;50.960;7.138;2024-03-08T00:46:26;28.93;;;14.73;;
41217;SDS011;26950;50.960;7.138;2024-03-08T00:48:53;28.80;;;15.57;;
41217;SDS011;26950;50.960;7.138;2024-03-08T00:51:21;28.73;;;14.67;;
41217;SDS011;26950;50.960;7.138;2024-03-08T00:53:47;26.17;;;14.40;;
41217;SDS011;26950;50.960;7.138;2024-03-08T00:56:14;23.87;;;14.30;;
41217;SDS011;26950;50.960;7.138;2024-03-08T00:58:41;28.77;;;15.37;;
41217;SDS011;26950;50.960;7.138;2024-03-08T01:01:07;26.17;;;14.77;;
41217;SDS011;26950;50.960;7.138;2024-03-08T01:03:36;26.73;;;14.83;;
41217;SDS011;26950;50.960;7.138;2024-03-08T01:06:02;26.43;;;14.90;;
41217;SDS011;26950;50.960;7.138;2024-03-08T01:08:29;27.67;;;15.27;;
41217;SDS011;26950;50.960;7.138;2024-03-08T01:10:56;29.90;;;15.57;;
41217;SDS011;26950;50.960;7.138;2024-03-08T01:13:22;29.00;;;14.83;;
41217;SDS011;26950;50.960;7.138;2024-03-08T01:15:49;29.53;;;14.93;;
41217;SDS011;26950;50.960;7.138;2024-03-08T01:18:15;31.40;;;15.87;;
41217;SDS011;26950;50.960;7.138;2024-03-08T01:20:43;32.27;;;15.07;;
41217;SDS011;26950;50.960;7.138;2024-03-08T01:23:10;31.90;;;15.80;;
41217;SDS011;26950;50.960;7.138;2024-03-08T01:25:37;28.57;;;15.00;;
41217;SDS011;26950;50.960;7.138;2024-03-08T01:28:04;28.00;;;15.07;;
41217;SDS011;26950;50.960;7.138;2024-03-08T01:30:31;30.40;;;16.00;;
41217;SDS011;26950;50.960;7.138;2024-03-08T01:32:59;30.70;;;16.43;;
41217;SDS011;26950;50.960;7.138;2024-03-08T01:35:25;28.93;;;15.50;;
41217;SDS011;26950;50.960;7.138;2024-03-08T01:37:53;30.27;;;15.53;;
41217;SDS011;26950;50.960;7.138;2024-03-08T01:40:20;30.80;;;15.83;;
41217;SDS011;26950;50.960;7.138;2024-03-08T01:42:47;28.47;;;15.57;;
41217;SDS011;26950;50.960;7.138;2024-03-08T01:45:14;31.17;;;15.40;;
41217;SDS011;26950;50.960;7.138;2024-03-08T01:47:41;30.03;;;15.93;;
41217;SDS011;26950;50.960;7.138;2024-03-08T01:50:08;31.33;;;15.83;;
41217;SDS011;26950;50.960;7.138;2024-03-08T01:52:35;29.93;;;15.97;;
41217;SDS011;26950;50.960;7.138;2024-03-08T01:55:04;31.10;;;15.83;;
41217;SDS011;26950;50.960;7.138;2024-03-08T01:57:33;29.63;;;16.30;;
41217;SDS011;26950;50.960;7.138;2024-03-08T02:00:00;31.40;;;15.93;;
41217;SDS011;26950;50.960;7.138;2024-03-08T02:02:30;31.53;;;16.60;;
41217;SDS011;26950;50.960;7.138;2024-03-08T02:04:59;34.90;;;15.77;;
41217;SDS011;26950;50.960;7.138;2024-03-08T02:07:26;27.67;;;15.80;;
41217;SDS011;26950;50.960;7.138;2024-03-08T02:09:53;28.13;;;15.30;;
41217;SDS011;26950;50.960;7.138;2024-03-08T02:12:21;28.80;;;15.87;;
41217;SDS011;26950;50.960;7.138;2024-03-08T02:14:47;31.43;;;16.57;;
41217;SDS011;26950;50.960;7.138;2024-03-08T02:17:14;29.27;;;15.73;;
41217;SDS011;26950;50.960;7.138;2024-03-08T02:19:40;31.30;;;17.03;;
41217;SDS011;26950;50.960;7.138;2024-03-08T02:22:08;27.57;;;15.20;;
41217;SDS011;26950;50.960;7.138;2024-03-08T02:24:35;29.73;;;16.03;;
41217;SDS011;26950;50.960;7.138;2024-03-08T02:27:01;29.53;;;15.83;;
41217;SDS011;26950;50.960;7.138;2024-03-08T02:29:28;25.80;;;14.70;;
41217;SDS011;26950;50.960;7.138;2024-03-08T02:31:56;31.20;;;15.93;;
41217;SDS011;26950;50.960;7.138;2024-03-08T02:34:22;29.57;;;16.30;;
41217;SDS011;26950;50.960;7.138;2024-03-08T02:36:48;32.53;;;16.47;;
41217;SDS011;26950;50.960;7.138;2024-03-08T02:39:16;32.20;;;16.37;;
41217;SDS011;26950;50.960;7.138;2024-03-08T02:41:44;32.20;;;16.53;;
41217;SDS011;26950;50.960;7.138;2024-03-08T02:44:11;29.90;;;15.87;;
41217;SDS011;26950;50.960;7.138;2024-03-08T02:46:38;31.40;;;16.73;;
41217;SDS011;26950;50.960;7.138;2024-03-08T02:49:04;32.50;;;15.90;;
41217;SDS011;26950;50.960;7.138;2024-03-08T02:51:32;30.93;;;15.63;;
41217;SDS011;26950;50.960;7.138;2024-03-08T02:54:00;30.73;;;15.60;;
41217;SDS011;26950;50.960;7.138;2024-03-08T02:56:28;32.50;;;16.47;;
41217;SDS011;26950;50.960;7.138;2024-03-08T02:58:55;30.17;;;16.07;;
41217;SDS011;26950;50.960;7.138;2024-03-08T03:01:21;30.17;;;16.23;;
41217;SDS011;26950;50.960;7.138;2024-03-08T03:03:48;31.53;;;15.30;;
41217;SDS011;26950;50.960;7.138;2024-03-08T03:06:14;29.33;;;15.70;;
41217;SDS011;26950;50.960;7.138;2024-03-08T03:08:41;30.43;;;16.00;;
41217;SDS011;26950;50.960;7.138;2024-03-08T03:11:10;27.83;;;15.33;;
41217;SDS011;26950;50.960;7.138;2024-03-08T03:13:39;30.00;;;16.37;;
41217;SDS011;26950;50.960;7.138;2024-03-08T03:16:07;32.00;;;16.03;;
41217;SDS011;26950;50.960;7.138;2024-03-08T03:18:35;34.43;;;16.30;;
41217;SDS011;26950;50.960;7.138;2024-03-08T03:21:01;34.90;;;16.30;;
41217;SDS011;26950;50.960;7.138;2024-03-08T03:23:32;30.60;;;16.03;;
41217;SDS011;26950;50.960;7.138;2024-03-08T03:25:59;33.70;;;16.47;;
41217;SDS011;26950;50.960;7.138;2024-03-08T03:28:27;31.60;;;15.70;;
41217;SDS011;26950;50.960;7.138;2024-03-08T03:30:55;33.60;;;15.97;;
41217;SDS011;26950;50.960;7.138;2024-03-08T03:33:23;36.57;;;16.63;;
41217;SDS011;26950;50.960;7.138;2024-03-08T03:35:50;31.33;;;15.53;;
41217;SDS011;26950;50.960;7.138;2024-03-08T03:38:17;30.20;;;15.40;;
41217;SDS011;26950;50.960;7.138;2024-03-08T03:40:44;26.63;;;14.70;;
41217;SDS011;26950;50.960;7.138;2024-03-08T03:43:13;29.90;;;16.10;;
41217;SDS011;26950;50.960;7.138;2024-03-08T03:45:40;28.97;;;15.87;;
41217;SDS011;26950;50.960;7.138;2024-03-08T03:48:08;34.50;;;16.83;;
41217;SDS011;26950;50.960;7.138;2024-03-08T03:50:35;29.00;;;15.73;;
41217;SDS011;26950;50.960;7.138;2024-03-08T03:53:02;31.30;;;16.07;;
41217;SDS011;26950;50.960;7.138;2024-03-08T03:55:28;31.03;;;15.23;;
41217;SDS011;26950;50.960;7.138;2024-03-08T03:57:55;28.10;;;15.07;;
41217;SDS011;26950;50.960;7.138;2024-03-08T04:00:23;30.07;;;15.17;;
41217;SDS011;26950;50.960;7.138;2024-03-08T04:02:51;32.23;;;17.07;;
41217;SDS011;26950;50.960;7.138;2024-03-08T04:05:19;29.47;;;15.23;;
41217;SDS011;26950;50.960;7.138;2024-03-08T04:07:46;30.97;;;16.50;;
41217;SDS011;26950;50.960;7.138;2024-03-08T04:10:13;29.63;;;14.87;;
41217;SDS011;26950;50.960;7.138;2024-03-08T04:12:40;31.57;;;16.20;;
41217;SDS011;26950;50.960;7.138;2024-03-08T04:15:07;31.23;;;15.90;;
41217;SDS011;26950;50.960;7.138;2024-03-08T04:17:35;27.77;;;14.60;;
41217;SDS011;26950;50.960;7.138;2024-03-08T04:20:03;30.40;;;15.20;;
41217;SDS011;26950;50.960;7.138;2024-03-08T04:22:36;33.10;;;16.53;;
41217;SDS011;26950;50.960;7.138;2024-03-08T04:25:03;31.90;;;15.70;;
41217;SDS011;26950;50.960;7.138;2024-03-08T04:27:31;33.50;;;16.20;;
41217;SDS011;26950;50.960;7.138;2024-03-08T04:29:57;29.23;;;15.20;;
41217;SDS011;26950;50.960;7.138;2024-03-08T04:32:24;29.23;;;14.87;;
41217;SDS011;26950;50.960;7.138;2024-03-08T04:34:51;31.00;;;16.47;;
41217;SDS011;26950;50.960;7.138;2024-03-08T04:37:17;30.87;;;15.50;;
41217;SDS011;26950;50.960;7.138;2024-03-08T04:39:48;33.17;;;16.37;;
41217;SDS011;26950;50.960;7.138;2024-03-08T04:42:14;32.90;;;15.70;;
41217;SDS011;26950;50.960;7.138;2024-03-08T04:44:43;33.73;;;16.73;;
41217;SDS011;26950;50.960;7.138;2024-03-08T04:47:09;30.60;;;15.40;;
41217;SDS011;26950;50.960;7.138;2024-03-08T04:49:36;33.73;;;16.87;;
41217;SDS011;26950;50.960;7.138;2024-03-08T04:52:02;31.73;;;15.93;;
41217;SDS011;26950;50.960;7.138;2024-03-08T04:54:29;31.97;;;15.33;;
41217;SDS011;26950;50.960;7.138;2024-03-08T04:56:57;35.07;;;16.90;;
41217;SDS011;26950;50.960;7.138;2024-03-08T04:59:25;32.93;;;17.23;;
41217;SDS011;26950;50.960;7.138;2024-03-08T05:01:51;31.23;;;16.13;;
41217;SDS011;26950;50.960;7.138;2024-03-08T05:04:18;31.70;;;16.20;;
41217;SDS011;26950;50.960;7.138;2024-03-08T05:06:44;32.50;;;16.47;;
41217;SDS011;26950;50.960;7.138;2024-03-08T05:09:11;36.03;;;17.03;;
41217;SDS011;26950;50.960;7.138;2024-03-08T05:11:41;34.83;;;16.70;;
41217;SDS011;26950;50.960;7.138;2024-03-08T05:14:09;32.23;;;16.60;;
41217;SDS011;26950;50.960;7.138;2024-03-08T05:16:35;34.00;;;16.77;;
41217;SDS011;26950;50.960;7.138;2024-03-08T05:19:02;33.10;;;17.20;;
41217;SDS011;26950;50.960;7.138;2024-03-08T05:21:29;34.13;;;16.87;;
41217;SDS011;26950;50.960;7.138;2024-03-08T05:23:55;34.13;;;17.17;;
41217;SDS011;26950;50.960;7.138;2024-03-08T05:26:22;38.33;;;16.63;;
41217;SDS011;26950;50.960;7.138;2024-03-08T05:28:48;31.80;;;16.73;;
41217;SDS011;26950;50.960;7.138;2024-03-08T05:31:19;34.77;;;17.37;;
41217;SDS011;26950;50.960;7.138;2024-03-08T05:33:47;32.50;;;16.37;;
41217;SDS011;26950;50.960;7.138;2024-03-08T05:36:14;34.87;;;17.10;;
41217;SDS011;26950;50.960;7.138;2024-03-08T05:38:41;32.10;;;16.80;;
41217;SDS011;26950;50.960;7.138;2024-03-08T05:41:08;36.50;;;17.53;;
41217;SDS011;26950;50.960;7.138;2024-03-08T05:43:36;35.87;;;16.93;;
41217;SDS011;26950;50.960;7.138;2024-03-08T05:46:03;32.77;;;16.20;;
41217;SDS011;26950;50.960;7.138;2024-03-08T05:48:31;35.53;;;16.97;;
41217;SDS011;26950;50.960;7.138;2024-03-08T05:50:58;32.33;;;16.57;;
41217;SDS011;26950;50.960;7.138;2024-03-08T05:53:24;34.03;;;16.83;;
41217;SDS011;26950;50.960;7.138;2024-03-08T05:55:51;32.97;;;17.23;;
41217;SDS011;26950;50.960;7.138;2024-03-08T05:58:19;35.27;;;17.03;;
41217;SDS011;26950;50.960;7.138;2024-03-08T06:00:45;36.00;;;17.23;;
41217;SDS011;26950;50.960;7.138;2024-03-08T06:03:12;31.03;;;16.13;;
41217;SDS011;26950;50.960;7.138;2024-03-08T06:05:40;31.67;;;16.60;;
41217;SDS011;26950;50.960;7.138;2024-03-08T06:08:07;33.67;;;17.00;;
41217;SDS011;26950;50.960;7.138;2024-03-08T06:10:33;37.00;;;18.20;;
41217;SDS011;26950;50.960;7.138;2024-03-08T06:13:00;34.77;;;16.77;;
41217;SDS011;26950;50.960;7.138;2024-03-08T06:15:27;34.97;;;17.20;;
41217;SDS011;26950;50.960;7.138;2024-03-08T06:17:53;35.73;;;17.37;;
41217;SDS011;26950;50.960;7.138;2024-03-08T06:20:20;36.37;;;17.83;;
41217;SDS011;26950;50.960;7.138;2024-03-08T06:22:52;34.37;;;17.33;;
41217;SDS011;26950;50.960;7.138;2024-03-08T06:25:19;36.90;;;17.83;;
41217;SDS011;26950;50.960;7.138;2024-03-08T06:27:46;33.07;;;17.07;;
41217;SDS011;26950;50.960;7.138;2024-03-08T06:30:13;35.60;;;17.53;;
41217;SDS011;26950;50.960;7.138;2024-03-08T06:32:41;36.70;;;18.37;;
41217;SDS011;26950;50.960;7.138;2024-03-08T06:35:08;35.07;;;17.23;;
41217;SDS011;26950;50.960;7.138;2024-03-08T06:37:35;37.47;;;17.67;;
41217;SDS011;26950;50.960;7.138;2024-03-08T06:40:03;38.37;;;18.00;;
41217;SDS011;26950;50.960;7.138;2024-03-08T06:42:33;38.30;;;17.57;;
41217;SDS011;26950;50.960;7.138;2024-03-08T06:45:00;33.07;;;17.77;;
41217;SDS011;26950;50.960;7.138;2024-03-08T06:47:29;36.00;;;17.53;;
41217;SDS011;26950;50.960;7.138;2024-03-08T06:49:56;37.37;;;17.97;;
41217;SDS011;26950;50.960;7.138;2024-03-08T06:52:23;35.80;;;18.30;;
41217;SDS011;26950;50.960;7.138;2024-03-08T06:54:49;36.40;;;18.13;;
41217;SDS011;26950;50.960;7.138;2024-03-08T06:57:18;35.63;;;17.20;;
41217;SDS011;26950;50.960;7.138;2024-03-08T06:59:46;37.43;;;18.50;;
41217;SDS011;26950;50.960;7.138;2024-03-08T07:02:13;35.60;;;18.07;;
41217;SDS011;26950;50.960;7.138;2024-03-08T07:04:39;38.53;;;18.50;;
41217;SDS011;26950;50.960;7.138;2024-03-08T07:07:06;34.83;;;17.93;;
41217;SDS011;26950;50.960;7.138;2024-03-08T07:09:34;35.90;;;18.17;;
41217;SDS011;26950;50.960;7.138;2024-03-08T07:12:01;35.13;;;17.83;;
41217;SDS011;26950;50.960;7.138;2024-03-08T07:14:28;31.03;;;17.43;;
41217;SDS011;26950;50.960;7.138;2024-03-08T07:16:56;34.23;;;18.17;;
41217;SDS011;26950;50.960;7.138;2024-03-08T07:19:22;36.97;;;17.50;;
41217;SDS011;26950;50.960;7.138;2024-03-08T07:21:49;33.40;;;17.40;;
41217;SDS011;26950;50.960;7.138;2024-03-08T07:24:15;35.93;;;17.50;;
41217;SDS011;26950;50.960;7.138;2024-03-08T07:27:03;32.97;;;17.67;;
41217;SDS011;26950;50.960;7.138;2024-03-08T07:29:31;34.47;;;17.63;;
41217;SDS011;26950;50.960;7.138;2024-03-08T07:31:58;33.57;;;17.00;;
41217;SDS011;26950;50.960;7.138;2024-03-08T07:34:37;36.30;;;17.83;;
41217;SDS011;26950;50.960;7.138;2024-03-08T07:37:05;34.30;;;17.90;;
41217;SDS011;26950;50.960;7.138;2024-03-08T07:39:35;34.87;;;16.93;;
41217;SDS011;26950;50.960;7.138;2024-03-08T07:42:02;37.97;;;17.67;;
41217;SDS011;26950;50.960;7.138;2024-03-08T07:44:29;32.17;;;18.03;;
41217;SDS011;26950;50.960;7.138;2024-03-08T07:46:59;35.83;;;17.50;;
41217;SDS011;26950;50.960;7.138;2024-03-08T07:49:26;32.30;;;17.43;;
41217;SDS011;26950;50.960;7.138;2024-03-08T07:51:52;35.80;;;17.30;;
41217;SDS011;26950;50.960;7.138;2024-03-08T07:54:19;33.87;;;17.50;;
41217;SDS011;26950;50.960;7.138;2024-03-08T07:56:46;34.07;;;17.73;;
41217;SDS011;26950;50.960;7.138;2024-03-08T07:59:12;32.87;;;16.87;;
41217;SDS011;26950;50.960;7.138;2024-03-08T08:01:41;34.30;;;16.73;;
41217;SDS011;26950;50.960;7.138;2024-03-08T08:04:09;35.33;;;17.23;;
41217;SDS011;26950;50.960;7.138;2024-03-08T08:06:37;32.87;;;16.10;;
41217;SDS011;26950;50.960;7.138;2024-03-08T08:09:06;32.90;;;16.87;;
41217;SDS011;26950;50.960;7.138;2024-03-08T08:11:35;35.30;;;17.50;;
41217;SDS011;26950;50.960;7.138;2024-03-08T08:14:01;40.27;;;16.53;;
41217;SDS011;26950;50.960;7.138;2024-03-08T08:16:28;33.93;;;17.90;;
41217;SDS011;26950;50.960;7.138;2024-03-08T08:18:56;31.50;;;17.00;;
41217;SDS011;26950;50.960;7.138;2024-03-08T08:21:22;30.17;;;17.13;;
41217;SDS011;26950;50.960;7.138;2024-03-08T08:23:50;31.37;;;16.73;;
41217;SDS011;26950;50.960;7.138;2024-03-08T08:26:16;34.27;;;17.90;;
41217;SDS011;26950;50.960;7.138;2024-03-08T08:28:43;30.53;;;16.17;;
41217;SDS011;26950;50.960;7.138;2024-03-08T08:31:11;32.43;;;17.70;;
41217;SDS011;26950;50.960;7.138;2024-03-08T08:33:38;30.30;;;16.47;;
41217;SDS011;26950;50.960;7.138;2024-03-08T08:36:06;30.27;;;16.93;;
41217;SDS011;26950;50.960;7.138;2024-03-08T08:38:35;31.73;;;16.43;;
41217;SDS011;26950;50.960;7.138;2024-03-08T08:41:01;29.83;;;16.73;;
41217;SDS011;26950;50.960;7.138;2024-03-08T08:43:28;30.23;;;15.63;;
41217;SDS011;26950;50.960;7.138;2024-03-08T08:45:54;34.27;;;17.00;;
41217;SDS011;26950;50.960;7.138;2024-03-08T08:48:21;28.60;;;15.60;;
41217;SDS011;26950;50.960;7.138;2024-03-08T08:50:48;28.50;;;16.00;;
41217;SDS011;26950;50.960;7.138;2024-03-08T08:53:18;27.27;;;15.43;;
41217;SDS011;26950;50.960;7.138;2024-03-08T08:55:45;26.80;;;15.83;;
41217;SDS011;26950;50.960;7.138;2024-03-08T08:58:11;25.80;;;15.60;;
41217;SDS011;26950;50.960;7.138;2024-03-08T09:00:38;27.93;;;14.93;;
41217;SDS011;26950;50.960;7.138;2024-03-08T09:03:09;25.27;;;15.13;;
41217;SDS011;26950;50.960;7.138;2024-03-08T09:05:37;25.13;;;14.53;;
41217;SDS011;26950;50.960;7.138;2024-03-08T09:08:04;26.90;;;15.23;;
41217;SDS011;26950;50.960;7.138;2024-03-08T09:10:32;27.40;;;15.33;;
41217;SDS011;26950;50.960;7.138;2024-03-08T09:12:59;27.33;;;15.13;;
41217;SDS011;26950;50.960;7.138;2024-03-08T09:15:25;25.80;;;15.03;;
41217;SDS011;26950;50.960;7.138;2024-03-08T09:17:53;27.77;;;15.37;;
41217;SDS011;26950;50.960;7.138;2024-03-08T09:20:20;22.20;;;13.87;;
41217;SDS011;26950;50.960;7.138;2024-03-08T09:22:46;24.27;;;14.20;;
41217;SDS011;26950;50.960;7.138;2024-03-08T09:25:13;25.33;;;14.57;;
41217;SDS011;26950;50.960;7.138;2024-03-08T09:27:41;26.03;;;14.63;;
41217;SDS011;26950;50.960;7.138;2024-03-08T09:30:07;22.57;;;14.10;;
41217;SDS011;26950;50.960;7.138;2024-03-08T09:32:34;26.00;;;15.00;;
41217;SDS011;26950;50.960;7.138;2024-03-08T09:35:01;27.33;;;14.57;;
41217;SDS011;26950;50.960;7.138;2024-03-08T09:37:28;26.27;;;15.20;;
41217;SDS011;26950;50.960;7.138;2024-03-08T09:39:55;25.30;;;14.00;;
41217;SDS011;26950;50.960;7.138;2024-03-08T09:42:24;26.77;;;14.70;;
41217;SDS011;26950;50.960;7.138;2024-03-08T09:44:51;25.43;;;14.73;;
41217;SDS011;26950;50.960;7.138;2024-03-08T09:47:18;25.23;;;13.97;;
41217;SDS011;26950;50.960;7.138;2024-03-08T09:49:54;23.37;;;13.73;;
41217;SDS011;26950;50.960;7.138;2024-03-08T09:52:20;22.27;;;13.87;;
41217;SDS011;26950;50.960;7.138;2024-03-08T09:54:47;24.70;;;14.10;;
41217;SDS011;26950;50.960;7.138;2024-03-08T09:57:14;22.73;;;13.93;;
41217;SDS011;26950;50.960;7.138;2024-03-08T09:59:41;21.27;;;13.67;;
41217;SDS011;26950;50.960;7.138;2024-03-08T10:02:15;24.03;;;14.00;;
41217;SDS011;26950;50.960;7.138;2024-03-08T10:04:42;22.53;;;13.40;;
41217;SDS011;26950;50.960;7.138;2024-03-08T10:07:11;22.17;;;13.50;;
41217;SDS011;26950;50.960;7.138;2024-03-08T10:09:38;21.87;;;13.63;;
41217;SDS011;26950;50.960;7.138;2024-03-08T10:12:06;21.60;;;13.47;;
41217;SDS011;26950;50.960;7.138;2024-03-08T10:14:33;24.30;;;14.30;;
41217;SDS011;26950;50.960;7.138;2024-03-08T10:17:00;20.07;;;12.97;;
41217;SDS011;26950;50.960;7.138;2024-03-08T10:19:28;21.17;;;12.50;;
41217;SDS011;26950;50.960;7.138;2024-03-08T10:21:55;25.15;;;13.18;;
41217;SDS011;26950;50.960;7.138;2024-03-08T10:24:23;20.27;;;13.03;;
41217;SDS011;26950;50.960;7.138;2024-03-08T10:26:51;20.97;;;12.67;;
41217;SDS011;26950;50.960;7.138;2024-03-08T10:29:18;18.47;;;11.27;;
41217;SDS011;26950;50.960;7.138;2024-03-08T10:31:45;22.50;;;11.88;;
41217;SDS011;26950;50.960;7.138;2024-03-08T10:34:12;21.75;;;12.25;;
41217;SDS011;26950;50.960;7.138;2024-03-08T10:36:40;19.02;;;11.40;;
41217;SDS011;26950;50.960;7.138;2024-03-08T10:39:07;18.52;;;11.23;;
41217;SDS011;26950;50.960;7.138;2024-03-08T10:41:50;21.52;;;11.65;;
41217;SDS011;26950;50.960;7.138;2024-03-08T10:44:23;19.15;;;11.23;;
41217;SDS011;26950;50.960;7.138;2024-03-08T10:47:09;17.73;;;10.85;;
41217;SDS011;26950;50.960;7.138;2024-03-08T10:49:47;15.57;;;10.30;;
41217;SDS011;26950;50.960;7.138;2024-03-08T10:52:20;16.42;;;10.07;;
41217;SDS011;26950;50.960;7.138;2024-03-08T10:54:47;18.05;;;10.70;;
41217;SDS011;26950;50.960;7.138;2024-03-08T10:57:14;17.27;;;10.70;;
41217;SDS011;26950;50.960;7.138;2024-03-08T10:59:44;17.48;;;11.63;;
41217;SDS011;26950;50.960;7.138;2024-03-08T11:02:11;20.15;;;10.88;;
41217;SDS011;26950;50.960;7.138;2024-03-08T11:04:38;18.23;;;11.18;;
41217;SDS011;26950;50.960;7.138;2024-03-08T11:07:05;18.80;;;10.27;;
41217;SDS011;26950;50.960;7.138;2024-03-08T11:09:35;15.35;;;9.60;;
41217;SDS011;26950;50.960;7.138;2024-03-08T11:12:18;15.65;;;10.73;;
41217;SDS011;26950;50.960;7.138;2024-03-08T11:14:47;17.98;;;11.15;;
41217;SDS011;26950;50.960;7.138;2024-03-08T11:17:15;16.23;;;10.40;;
41217;SDS011;26950;50.960;7.138;2024-03-08T11:19:45;14.60;;;9.43;;
41217;SDS011;26950;50.960;7.138;2024-03-08T11:22:20;15.70;;;9.30;;
41217;SDS011;26950;50.960;7.138;2024-03-08T11:24:51;13.20;;;9.15;;
41217;SDS011;26950;50.960;7.138;2024-03-08T11:27:17;14.55;;;9.88;;
41217;SDS011;26950;50.960;7.138;2024-03-08T11:29:45;13.90;;;9.18;;
41217;SDS011;26950;50.960;7.138;2024-03-08T11:32:27;16.08;;;9.50;;
41217;SDS011;26950;50.960;7.138;2024-03-08T11:34:55;14.48;;;8.90;;
41217;SDS011;26950;50.960;7.138;2024-03-08T11:37:22;14.30;;;10.27;;
41217;SDS011;26950;50.960;7.138;2024-03-08T11:39:51;16.02;;;10.43;;
41217;SDS011;26950;50.960;7.138;2024-03-08T11:42:24;13.77;;;9.95;;
41217;SDS011;26950;50.960;7.138;2024-03-08T11:44:51;13.05;;;9.80;;
41217;SDS011;26950;50.960;7.138;2024-03-08T11:47:18;17.48;;;9.65;;
41217;SDS011;26950;50.960;7.138;2024-03-08T11:49:45;15.02;;;9.55;;
41217;SDS011;26950;50.960;7.138;2024-03-08T11:52:13;12.40;;;9.02;;
41217;SDS011;26950;50.960;7.138;2024-03-08T11:54:41;13.43;;;9.27;;
41217;SDS011;26950;50.960;7.138;2024-03-08T11:57:09;12.15;;;8.82;;
41217;SDS011;26950;50.960;7.138;2024-03-08T11:59:36;13.70;;;8.75;;
41217;SDS011;26950;50.960;7.138;2024-03-08T12:02:03;11.52;;;8.50;;
41217;SDS011;26950;50.960;7.138;2024-03-08T12:04:31;13.75;;;8.95;;
41217;SDS011;26950;50.960;7.138;2024-03-08T12:07:01;11.48;;;8.85;;
41217;SDS011;26950;50.960;7.138;2024-03-08T12:09:33;12.55;;;8.93;;
41217;SDS011;26950;50.960;7.138;2024-03-08T12:12:01;12.25;;;8.80;;
41217;SDS011;26950;50.960;7.138;2024-03-08T12:14:30;13.55;;;8.98;;
41217;SDS011;26950;50.960;7.138;2024-03-08T12:16:57;13.15;;;8.70;;
41217;SDS011;26950;50.960;7.138;2024-03-08T12:19:25;13.10;;;8.60;;
41217;SDS011;26950;50.960;7.138;2024-03-08T12:21:53;14.43;;;9.38;;
41217;SDS011;26950;50.960;7.138;2024-03-08T12:24:20;14.43;;;8.65;;
41217;SDS011;26950;50.960;7.138;2024-03-08T12:26:46;12.55;;;8.70;;
41217;SDS011;26950;50.960;7.138;2024-03-08T12:29:15;14.82;;;8.70;;
41217;SDS011;26950;50.960;7.138;2024-03-08T12:31:46;12.93;;;8.65;;
41217;SDS011;26950;50.960;7.138;2024-03-08T12:34:13;13.65;;;8.63;;
41217;SDS011;26950;50.960;7.138;2024-03-08T12:36:46;15.88;;;8.93;;
41217;SDS011;26950;50.960;7.138;2024-03-08T12:39:15;15.20;;;8.48;;
41217;SDS011;26950;50.960;7.138;2024-03-08T12:41:43;16.05;;;8.77;;
41217;SDS011;26950;50.960;7.138;2024-03-08T12:44:11;15.07;;;8.88;;
41217;SDS011;26950;50.960;7.138;2024-03-08T12:46:38;15.50;;;8.73;;
41217;SDS011;26950;50.960;7.138;2024-03-08T12:49:08;15.48;;;9.68;;
41217;SDS011;26950;50.960;7.138;2024-03-08T12:51:37;15.10;;;8.82;;
41217;SDS011;26950;50.960;7.138;2024-03-08T12:54:04;13.20;;;8.27;;
41217;SDS011;26950;50.960;7.138;2024-03-08T12:56:32;15.60;;;8.70;;
41217;SDS011;26950;50.960;7.138;2024-03-08T12:59:00;13.43;;;8.38;;
41217;SDS011;26950;50.960;7.138;2024-03-08T13:01:27;13.07;;;8.17;;
41217;SDS011;26950;50.960;7.138;2024-03-08T13:03:55;14.10;;;8.65;;
41217;SDS011;26950;50.960;7.138;2024-03-08T13:06:22;14.00;;;8.87;;
41217;SDS011;26950;50.960;7.138;2024-03-08T13:08:49;13.13;;;8.07;;
41217;SDS011;26950;50.960;7.138;2024-03-08T13:11:16;14.15;;;7.68;;
41217;SDS011;26950;50.960;7.138;2024-03-08T13:13:44;11.07;;;7.07;;
41217;SDS011;26950;50.960;7.138;2024-03-08T13:16:10;15.43;;;8.40;;
41217;SDS011;26950;50.960;7.138;2024-03-08T13:18:40;14.50;;;8.93;;
41217;SDS011;26950;50.960;7.138;2024-03-08T13:21:07;14.25;;;8.93;;
41217;SDS011;26950;50.960;7.138;2024-03-08T13:23:36;13.52;;;8.23;;
41217;SDS011;26950;50.960;7.138;2024-03-08T13:26:05;13.52;;;8.02;;
41217;SDS011;26950;50.960;7.138;2024-03-08T13:28:31;14.45;;;8.63;;
41217;SDS011;26950;50.960;7.138;2024-03-08T13:31:02;12.95;;;8.45;;
41217;SDS011;26950;50.960;7.138;2024-03-08T13:33:31;13.83;;;8.73;;
41217;SDS011;26950;50.960;7.138;2024-03-08T13:36:00;15.23;;;9.03;;
41217;SDS011;26950;50.960;7.138;2024-03-08T13:38:28;14.70;;;8.37;;
41217;SDS011;26950;50.960;7.138;2024-03-08T13:40:58;16.50;;;9.80;;
41217;SDS011;26950;50.960;7.138;2024-03-08T13:43:25;14.33;;;8.50;;
41217;SDS011;26950;50.960;7.138;2024-03-08T13:45:53;14.90;;;8.80;;
41217;SDS011;26950;50.960;7.138;2024-03-08T13:48:19;14.03;;;8.80;;
41217;SDS011;26950;50.960;7.138;2024-03-08T13:50:47;17.07;;;10.10;;
41217;SDS011;26950;50.960;7.138;2024-03-08T13:53:14;16.07;;;9.93;;
41217;SDS011;26950;50.960;7.138;2024-03-08T13:55:40;17.83;;;9.50;;
41217;SDS011;26950;50.960;7.138;2024-03-08T13:58:08;17.07;;;10.40;;
41217;SDS011;26950;50.960;7.138;2024-03-08T14:00:35;16.43;;;10.13;;
41217;SDS011;26950;50.960;7.138;2024-03-08T14:03:02;16.00;;;9.60;;
41217;SDS011;26950;50.960;7.138;2024-03-08T14:05:30;17.50;;;9.60;;
41217;SDS011;26950;50.960;7.138;2024-03-08T14:07:59;18.30;;;10.63;;
41217;SDS011;26950;50.960;7.138;2024-03-08T14:10:28;17.88;;;10.23;;
41217;SDS011;26950;50.960;7.138;2024-03-08T14:12:56;20.37;;;10.57;;
41217;SDS011;26950;50.960;7.138;2024-03-08T14:15:24;20.83;;;11.60;;
41217;SDS011;26950;50.960;7.138;2024-03-08T14:17:54;19.37;;;11.17;;
41217;SDS011;26950;50.960;7.138;2024-03-08T14:20:21;18.70;;;11.00;;
41217;SDS011;26950;50.960;7.138;2024-03-08T14:22:50;19.77;;;11.67;;
41217;SDS011;26950;50.960;7.138;2024-03-08T14:25:17;20.93;;;11.37;;
41217;SDS011;26950;50.960;7.138;2024-03-08T14:27:43;20.13;;;11.80;;